Time;durP1;ratioP1;P1;durP2;ratioP2;P2;SDS_P1;SDS_P2;PMS_P1;PMS_P2;Temp;Humidity;BMP_temperature;BMP_pressure;BME280_temperature;BME280_humidity;BME280_pressure;Samples;Min_cycle;Max_cycle;Signal;HPM_P1;HPM_P2
2022/12/20 00:00:16;;;;;;;13.13;6.75;;;9.70;99.90;;;;;;5048894;28;20036;-68
2022/12/20 00:02:42;;;;;;;10.00;6.15;;;9.70;99.90;;;;;;5062407;28;20036;-68
2022/12/20 00:05:07;;;;;;;11.65;6.50;;;9.70;99.90;;;;;;5065976;28;20155;-68
2022/12/20 00:07:33;;;;;;;11.38;6.47;;;9.70;99.90;;;;;;5066812;28;20040;-68
2022/12/20 00:09:59;;;;;;;13.60;6.72;;;9.70;99.90;;;;;;5065334;28;20040;-68
2022/12/20 00:12:24;;;;;;;10.82;6.97;;;9.80;99.90;;;;;;5048677;28;20171;-68
2022/12/20 00:14:50;;;;;;;9.52;5.82;;;9.80;99.90;;;;;;5067185;28;20382;-68
2022/12/20 00:17:15;;;;;;;10.23;6.43;;;9.80;99.90;;;;;;5049386;28;20047;-68
2022/12/20 00:19:43;;;;;;;13.93;6.80;;;9.80;99.90;;;;;;5065334;28;20113;-68
2022/12/20 00:22:09;;;;;;;13.05;6.53;;;9.80;99.90;;;;;;5050628;28;20042;-68
2022/12/20 00:24:35;;;;;;;10.25;5.85;;;9.80;99.90;;;;;;5049083;28;20070;-68
2022/12/20 00:27:00;;;;;;;12.23;6.53;;;9.80;99.90;;;;;;5049216;28;20044;-68
2022/12/20 00:29:26;;;;;;;11.02;6.10;;;9.80;99.90;;;;;;5049816;28;20041;-68
2022/12/20 00:31:51;;;;;;;11.70;6.03;;;9.80;99.90;;;;;;5049481;28;20032;-68
2022/12/20 00:34:17;;;;;;;11.27;6.25;;;9.80;99.90;;;;;;5065860;28;20408;-68
2022/12/20 00:36:43;;;;;;;9.48;5.53;;;9.70;99.90;;;;;;5049783;28;20044;-68
2022/12/20 00:39:08;;;;;;;9.57;5.45;;;9.70;99.90;;;;;;5050303;28;20036;-68
2022/12/20 00:41:34;;;;;;;9.75;5.72;;;9.60;99.90;;;;;;5064520;28;20475;-68
2022/12/20 00:44:01;;;;;;;11.10;5.80;;;9.60;99.90;;;;;;5049794;28;20075;-68
2022/12/20 00:46:27;;;;;;;9.75;6.00;;;9.50;99.90;;;;;;5049549;28;20044;-68
2022/12/20 00:48:54;;;;;;;10.20;6.10;;;9.50;99.90;;;;;;5047636;28;20047;-68
2022/12/20 00:51:23;;;;;;;8.65;5.32;;;9.50;99.90;;;;;;5049494;28;20076;-68
2022/12/20 00:53:49;;;;;;;9.82;5.93;;;9.50;99.90;;;;;;5064915;28;20032;-68
2022/12/20 00:56:14;;;;;;;9.77;5.75;;;9.50;99.90;;;;;;5063971;28;20118;-68
2022/12/20 00:58:41;;;;;;;9.35;5.68;;;9.50;99.90;;;;;;5062961;28;20033;-69
2022/12/20 01:01:24;;;;;;;10.77;5.97;;;9.50;99.90;;;;;;5048704;28;20415;-68
2022/12/20 01:03:51;;;;;;;10.18;5.65;;;9.60;99.90;;;;;;5062561;28;20400;-68
2022/12/20 01:06:18;;;;;;;10.18;5.65;;;9.60;99.90;;;;;;5050270;28;20143;-68
2022/12/20 01:08:43;;;;;;;8.68;5.47;;;9.60;99.90;;;;;;5064978;28;20044;-68
2022/12/20 01:11:15;;;;;;;9.00;5.40;;;9.60;99.90;;;;;;5049643;28;20135;-69
2022/12/20 01:13:45;;;;;;;10.77;5.75;;;9.70;99.90;;;;;;5049132;28;20468;-68
2022/12/20 01:16:41;;;;;;;8.82;5.13;;;9.70;99.90;;;;;;5066407;28;20445;-68
2022/12/20 01:19:09;;;;;;;9.15;5.30;;;9.70;99.90;;;;;;5061947;28;20076;-69
2022/12/20 01:21:35;;;;;;;10.10;5.88;;;9.80;99.90;;;;;;5081804;28;20041;-68
2022/12/20 01:24:00;;;;;;;10.98;5.63;;;9.80;99.90;;;;;;5064831;28;20534;-69
2022/12/20 01:26:28;;;;;;;10.65;5.75;;;9.80;99.90;;;;;;5061688;28;20037;-68
2022/12/20 01:28:59;;;;;;;12.35;5.10;;;9.80;99.90;;;;;;5048259;28;20047;-68
2022/12/20 01:31:26;;;;;;;9.65;5.22;;;9.80;99.90;;;;;;5063506;28;20369;-68
2022/12/20 01:33:51;;;;;;;10.07;5.50;;;9.80;99.90;;;;;;5081380;28;20037;-68
2022/12/20 01:36:20;;;;;;;12.00;5.72;;;9.80;99.90;;;;;;5065835;28;20446;-68
2022/12/20 01:38:46;;;;;;;11.45;5.20;;;9.80;99.90;;;;;;5049680;28;20439;-68
2022/12/20 01:41:17;;;;;;;7.05;4.65;;;9.70;99.90;;;;;;5047468;28;20052;-68
2022/12/20 01:43:55;;;;;;;8.57;5.25;;;9.80;99.90;;;;;;5063485;28;20496;-68
2022/12/20 01:46:23;;;;;;;9.10;5.10;;;9.70;99.90;;;;;;5064755;28;20041;-68
2022/12/20 01:48:54;;;;;;;10.10;5.43;;;9.70;99.90;;;;;;5061669;28;20032;-68
2022/12/20 01:51:22;;;;;;;7.88;4.82;;;9.70;99.90;;;;;;5048726;28;20047;-68
2022/12/20 01:53:54;;;;;;;9.20;4.78;;;9.70;99.90;;;;;;5061410;28;20037;-68
2022/12/20 01:56:20;;;;;;;8.82;4.90;;;9.70;99.90;;;;;;5046794;28;20048;-68
2022/12/20 01:58:48;;;;;;;9.27;5.40;;;9.70;99.90;;;;;;5063910;28;20504;-68
2022/12/20 02:01:13;;;;;;;7.38;4.80;;;9.70;99.90;;;;;;5063029;28;20404;-68
2022/12/20 02:03:40;;;;;;;8.10;5.20;;;9.60;99.90;;;;;;5065340;28;20043;-68
2022/12/20 02:06:15;;;;;;;8.80;5.05;;;9.60;99.90;;;;;;5062715;28;20039;-68
2022/12/20 02:08:41;;;;;;;8.13;4.28;;;9.60;99.90;;;;;;5064009;28;20397;-68
2022/12/20 02:11:09;;;;;;;8.63;4.80;;;9.60;99.90;;;;;;5062284;28;20101;-68
2022/12/20 02:13:48;;;;;;;9.52;5.50;;;9.60;99.90;;;;;;5062219;28;20133;-68
2022/12/20 02:16:21;;;;;;;8.95;4.80;;;9.60;99.90;;;;;;5062174;28;20037;-68
2022/12/20 02:18:56;;;;;;;8.88;5.50;;;9.60;99.90;;;;;;5047789;28;20569;-68
2022/12/20 02:21:53;;;;;;;8.90;5.10;;;9.60;99.90;;;;;;5077779;28;20048;-68
2022/12/20 02:24:33;;;;;;;8.90;5.00;;;9.60;99.90;;;;;;5047274;28;20040;-68
2022/12/20 02:27:26;;;;;;;13.38;4.93;;;9.60;99.90;;;;;;5047168;28;20481;-68
2022/12/20 02:30:03;;;;;;;10.32;5.32;;;9.60;99.90;;;;;;5076849;28;20040;-68
2022/12/20 02:32:46;;;;;;;8.98;5.50;;;9.60;99.90;;;;;;5064173;28;20438;-68
2022/12/20 02:35:16;;;;;;;9.13;5.20;;;9.60;99.90;;;;;;5047924;28;20052;-68
2022/12/20 02:37:57;;;;;;;9.20;5.28;;;9.50;99.90;;;;;;5061560;28;20052;-68
2022/12/20 02:40:28;;;;;;;8.90;5.30;;;9.50;99.90;;;;;;5061243;28;20135;-68
2022/12/20 02:45:13;;;;;;;7.63;4.80;;;9.50;99.90;;;;;;5048262;28;20389;-68
2022/12/20 02:45:50;;;;;;;12.95;5.72;;;9.50;99.90;;;;;;5064201;28;20072;-68
2022/12/20 02:48:18;;;;;;;9.15;5.47;;;9.50;99.90;;;;;;5046047;28;20495;-68
2022/12/20 02:50:48;;;;;;;9.45;5.35;;;9.50;99.90;;;;;;5045045;28;20446;-68
2022/12/20 02:53:15;;;;;;;10.20;5.97;;;9.50;99.90;;;;;;5058924;28;20044;-68
2022/12/20 02:55:44;;;;;;;9.77;5.15;;;9.50;99.90;;;;;;5064314;28;20543;-68
2022/12/20 02:58:27;;;;;;;12.50;5.68;;;9.50;99.90;;;;;;5045549;28;20033;-68
2022/12/20 03:00:57;;;;;;;8.13;5.53;;;9.50;99.90;;;;;;5044244;28;20051;-68
2022/12/20 03:03:23;;;;;;;9.32;5.85;;;9.50;99.90;;;;;;5066475;28;20045;-68
2022/12/20 03:05:52;;;;;;;11.93;5.75;;;9.50;99.90;;;;;;5066149;28;20036;-68
2022/12/20 03:08:18;;;;;;;10.88;6.10;;;9.50;99.90;;;;;;5051050;28;20035;-68
2022/12/20 03:10:44;;;;;;;9.02;5.30;;;9.50;99.90;;;;;;5051857;28;20055;-68
2022/12/20 03:13:09;;;;;;;8.80;5.82;;;9.50;99.90;;;;;;5064654;28;20040;-68
2022/12/20 03:15:35;;;;;;;9.93;5.90;;;9.40;99.90;;;;;;5049563;28;20033;-68
2022/12/20 03:18:02;;;;;;;9.50;6.07;;;9.50;99.90;;;;;;5047724;28;20052;-68
2022/12/20 03:20:27;;;;;;;9.88;6.22;;;9.50;99.90;;;;;;5050269;28;20040;-68
2022/12/20 03:22:53;;;;;;;12.10;5.65;;;9.40;99.90;;;;;;5066038;28;20047;-68
2022/12/20 03:25:19;;;;;;;8.98;5.43;;;9.50;99.90;;;;;;5066537;28;20051;-68
2022/12/20 03:27:44;;;;;;;11.73;6.32;;;9.50;99.90;;;;;;5048872;28;20519;-68
2022/12/20 03:30:11;;;;;;;10.98;6.28;;;9.40;99.90;;;;;;5068605;28;20053;-68
2022/12/20 03:32:36;;;;;;;10.15;6.20;;;9.40;99.90;;;;;;5067217;28;20064;-68
2022/12/20 03:35:03;;;;;;;10.07;5.45;;;9.40;99.90;;;;;;5066912;28;20118;-68
2022/12/20 03:37:28;;;;;;;9.90;6.13;;;9.40;99.90;;;;;;5050510;28;20484;-68
2022/12/20 03:39:54;;;;;;;10.30;5.90;;;9.40;99.90;;;;;;5066377;28;20052;-68
2022/12/20 03:42:19;;;;;;;10.15;5.60;;;9.40;99.90;;;;;;5067116;28;20055;-68
2022/12/20 03:44:45;;;;;;;11.07;6.43;;;9.40;99.90;;;;;;5065779;28;20036;-68
2022/12/20 03:47:11;;;;;;;9.93;5.63;;;9.50;99.90;;;;;;5064826;28;20064;-68
2022/12/20 03:49:36;;;;;;;10.80;6.15;;;9.40;99.90;;;;;;5050506;28;20936;-68
2022/12/20 03:52:02;;;;;;;9.95;5.80;;;9.40;99.90;;;;;;5068231;28;20533;-68
2022/12/20 03:54:27;;;;;;;10.88;4.97;;;9.40;99.90;;;;;;5065095;28;20037;-68
2022/12/20 03:56:53;;;;;;;9.25;5.70;;;9.50;99.90;;;;;;5066635;28;20039;-68
2022/12/20 03:59:19;;;;;;;10.90;6.00;;;9.50;99.90;;;;;;5065197;28;20075;-68
2022/12/20 04:01:44;;;;;;;11.00;5.80;;;9.50;99.90;;;;;;5064215;28;20056;-68
2022/12/20 04:04:13;;;;;;;9.93;5.63;;;9.50;99.90;;;;;;5051188;28;20492;-68
2022/12/20 04:06:38;;;;;;;10.88;5.85;;;9.60;99.90;;;;;;5064226;28;20064;-68
2022/12/20 04:09:04;;;;;;;11.40;5.15;;;9.60;99.90;;;;;;5066085;28;20091;-68
2022/12/20 04:11:30;;;;;;;9.57;5.45;;;9.60;99.90;;;;;;5065575;28;20036;-68
2022/12/20 04:13:56;;;;;;;10.43;5.80;;;9.60;99.90;;;;;;5066072;28;20044;-68
2022/12/20 04:16:24;;;;;;;9.02;5.57;;;9.70;99.90;;;;;;5051017;28;20480;-68
2022/12/20 04:18:50;;;;;;;10.68;5.75;;;9.70;99.90;;;;;;5062937;28;20044;-68
2022/12/20 04:21:30;;;;;;;9.38;5.68;;;9.80;99.90;;;;;;5048530;28;20111;-68
2022/12/20 04:23:58;;;;;;;10.05;5.47;;;9.80;99.90;;;;;;5064229;28;20036;-68
2022/12/20 04:26:24;;;;;;;10.60;5.68;;;9.80;99.90;;;;;;5050150;28;20520;-68
2022/12/20 04:28:50;;;;;;;10.57;5.72;;;9.80;99.90;;;;;;5062731;28;20487;-68
2022/12/20 04:31:15;;;;;;;11.60;6.13;;;9.80;99.90;;;;;;5050219;28;20055;-68
2022/12/20 04:33:41;;;;;;;9.55;5.90;;;9.80;99.90;;;;;;5047668;28;20106;-68
2022/12/20 04:36:06;;;;;;;10.48;6.05;;;9.80;99.90;;;;;;5049930;28;20495;-68
2022/12/20 04:38:32;;;;;;;11.40;6.20;;;9.80;99.90;;;;;;5064839;28;20051;-68
2022/12/20 04:40:58;;;;;;;8.98;5.65;;;9.90;99.90;;;;;;5049930;28;20051;-68
2022/12/20 04:43:24;;;;;;;9.38;5.97;;;9.80;99.90;;;;;;5046614;28;20075;-68
2022/12/20 04:45:52;;;;;;;10.50;6.43;;;9.80;99.90;;;;;;5063402;28;20392;-68
2022/12/20 04:48:18;;;;;;;11.00;6.30;;;9.90;99.90;;;;;;5062628;28;20037;-68
2022/12/20 04:50:49;;;;;;;10.90;5.95;;;9.90;99.90;;;;;;5049646;28;20742;-68
2022/12/20 04:55:59;;;;;;;10.13;6.20;;;9.90;99.90;;;;;;5061264;28;20044;-68
2022/12/20 04:58:24;;;;;;;10.57;6.22;;;9.90;99.90;;;;;;5062348;28;20085;-69
2022/12/20 05:00:53;;;;;;;9.32;5.70;;;9.90;99.90;;;;;;5063154;28;20079;-68
2022/12/20 05:03:20;;;;;;;8.25;5.25;;;10.00;99.90;;;;;;5064228;28;20044;-68
2022/12/20 05:05:45;;;;;;;10.85;5.50;;;10.00;99.90;;;;;;5079137;28;20047;-68
2022/12/20 05:08:11;;;;;;;12.00;6.05;;;10.10;99.90;;;;;;5064721;28;20037;-68
2022/12/20 05:10:37;;;;;;;8.90;5.53;;;10.10;99.90;;;;;;5062084;28;20045;-68
2022/12/20 05:13:03;;;;;;;10.77;5.82;;;10.10;99.90;;;;;;5061371;28;20563;-68
2022/12/20 05:15:29;;;;;;;10.45;5.65;;;10.10;99.90;;;;;;5048568;28;20040;-68
2022/12/20 05:17:59;;;;;;;11.18;6.40;;;10.10;99.90;;;;;;5062698;28;20059;-68
2022/12/20 05:20:31;;;;;;;8.93;5.03;;;10.10;99.90;;;;;;5048537;28;20427;-68
2022/12/20 05:28:32;;;;;;;11.23;5.60;;;10.20;99.90;;;;;;5065287;28;20128;-68
2022/12/20 05:30:59;;;;;;;11.93;5.72;;;10.20;99.90;;;;;;5047964;28;20377;-68
2022/12/20 05:33:26;;;;;;;9.25;5.70;;;10.10;99.90;;;;;;5065323;28;20404;-68
2022/12/20 05:35:51;;;;;;;10.32;6.10;;;10.20;99.90;;;;;;5064009;28;20436;-68
2022/12/20 05:38:17;;;;;;;10.48;5.90;;;10.20;99.90;;;;;;5048275;28;20037;-68
2022/12/20 05:40:43;;;;;;;9.57;5.13;;;10.20;99.90;;;;;;5061407;28;20059;-68
2022/12/20 05:43:08;;;;;;;9.15;5.30;;;10.20;99.90;;;;;;5047197;28;20052;-68
2022/12/20 05:45:34;;;;;;;9.93;5.65;;;10.20;99.90;;;;;;5046182;28;20555;-68
2022/12/20 05:48:01;;;;;;;9.88;5.35;;;10.20;99.90;;;;;;5063716;28;20029;-68
2022/12/20 05:50:26;;;;;;;10.23;5.55;;;10.20;99.90;;;;;;5061118;28;20048;-68
2022/12/20 05:52:52;;;;;;;8.13;5.13;;;10.20;99.90;;;;;;5063590;28;20085;-68
2022/12/20 05:55:17;;;;;;;11.15;5.50;;;10.20;99.90;;;;;;5047082;28;20131;-68
2022/12/20 05:57:43;;;;;;;9.95;5.82;;;10.20;99.90;;;;;;5062371;28;20036;-68
2022/12/20 06:00:10;;;;;;;8.88;5.40;;;10.20;99.90;;;;;;5044847;28;20501;-68
2022/12/20 06:02:36;;;;;;;11.52;5.45;;;10.20;99.90;;;;;;5047039;28;20028;-68
2022/12/20 06:05:01;;;;;;;9.23;5.22;;;10.20;99.90;;;;;;5047619;28;20040;-68
2022/12/20 06:07:30;;;;;;;9.23;5.38;;;10.20;99.90;;;;;;5063561;28;20047;-68
2022/12/20 06:09:57;;;;;;;10.32;5.60;;;10.20;99.90;;;;;;5064878;28;20040;-68
2022/12/20 06:12:22;;;;;;;8.75;4.95;;;10.20;99.90;;;;;;5063311;28;20048;-69
2022/12/20 06:14:48;;;;;;;10.40;5.53;;;10.10;99.90;;;;;;5062436;28;20052;-68
2022/12/20 06:17:13;;;;;;;10.38;5.38;;;10.10;99.90;;;;;;5064530;28;20044;-68
2022/12/20 06:19:40;;;;;;;10.10;4.90;;;10.10;99.90;;;;;;5048183;28;20047;-68
2022/12/20 06:22:07;;;;;;;10.88;5.10;;;10.20;99.90;;;;;;5061398;28;20041;-68
2022/12/20 06:24:33;;;;;;;9.43;5.25;;;10.10;99.90;;;;;;5077179;28;20044;-68
2022/12/20 06:26:59;;;;;;;10.43;5.45;;;10.20;99.90;;;;;;5060868;28;20036;-68
2022/12/20 06:29:25;;;;;;;7.90;4.95;;;10.20;99.90;;;;;;5047010;28;20059;-68
2022/12/20 06:31:50;;;;;;;9.25;5.15;;;10.20;99.90;;;;;;5060845;28;20111;-68
2022/12/20 06:34:17;;;;;;;9.32;5.07;;;10.30;99.90;;;;;;5064288;28;20416;-68
2022/12/20 06:36:42;;;;;;;8.30;5.00;;;10.30;99.90;;;;;;5063786;28;20047;-68
2022/12/20 06:39:08;;;;;;;8.60;5.05;;;10.30;99.90;;;;;;5065101;28;20404;-68
2022/12/20 06:41:34;;;;;;;8.48;5.22;;;10.30;99.90;;;;;;5046660;28;20059;-68
2022/12/20 06:44:00;;;;;;;7.20;4.88;;;10.30;99.90;;;;;;5061246;28;20086;-68
2022/12/20 06:46:26;;;;;;;8.02;5.00;;;10.30;99.90;;;;;;5047333;28;20037;-68
2022/12/20 06:48:52;;;;;;;10.00;5.00;;;10.30;99.90;;;;;;5042831;28;20033;-68
2022/12/20 06:51:17;;;;;;;9.85;5.13;;;10.40;99.90;;;;;;5063513;28;20117;-68
2022/12/20 06:53:43;;;;;;;8.65;5.05;;;10.40;99.90;;;;;;5061364;28;20040;-68
2022/12/20 06:56:09;;;;;;;9.32;5.10;;;10.40;99.90;;;;;;5045954;28;20033;-68
2022/12/20 06:58:34;;;;;;;10.23;5.63;;;10.40;99.90;;;;;;5061198;28;20484;-68
2022/12/20 07:01:00;;;;;;;10.57;6.20;;;10.40;99.90;;;;;;5062066;28;20045;-68
2022/12/20 07:03:26;;;;;;;8.18;5.53;;;10.30;99.90;;;;;;5060353;28;20040;-68
2022/12/20 07:05:53;;;;;;;11.27;6.55;;;10.30;99.90;;;;;;5064056;28;20040;-68
2022/12/20 07:08:19;;;;;;;10.07;6.43;;;10.20;99.90;;;;;;5046865;28;20141;-68
2022/12/20 07:10:45;;;;;;;11.73;6.30;;;10.20;99.90;;;;;;5060071;28;20036;-68
2022/12/20 07:13:11;;;;;;;11.02;6.78;;;10.20;99.90;;;;;;5043827;28;20098;-70
2022/12/20 07:15:36;;;;;;;11.93;8.02;;;10.20;99.90;;;;;;5046440;28;20040;-68
2022/12/20 07:18:02;;;;;;;9.45;6.38;;;10.20;99.90;;;;;;5060633;28;20449;-68
2022/12/20 07:20:29;;;;;;;10.82;7.13;;;10.20;99.90;;;;;;5060266;28;20123;-68
2022/12/20 07:22:54;;;;;;;12.77;7.50;;;10.10;99.90;;;;;;5047476;28;20036;-69
2022/12/20 07:25:20;;;;;;;12.05;8.27;;;10.10;99.90;;;;;;5046817;28;20040;-68
2022/12/20 07:27:48;;;;;;;11.75;7.20;;;10.20;99.90;;;;;;5063358;28;20568;-68
2022/12/20 07:30:14;;;;;;;12.52;7.97;;;10.20;99.90;;;;;;5045556;28;20196;-68
2022/12/20 07:32:40;;;;;;;12.05;8.27;;;10.10;99.90;;;;;;5062079;28;20539;-68
2022/12/20 07:35:06;;;;;;;13.18;7.32;;;10.20;99.90;;;;;;5062714;28;20128;-69
2022/12/20 07:37:31;;;;;;;13.65;7.78;;;10.20;99.90;;;;;;5046882;28;20040;-68
2022/12/20 07:39:57;;;;;;;13.23;8.50;;;10.20;99.90;;;;;;5044339;28;20811;-68
2022/12/20 07:42:23;;;;;;;12.90;8.43;;;10.20;99.90;;;;;;5047324;28;20087;-68
2022/12/20 07:44:48;;;;;;;12.05;8.35;;;10.20;99.90;;;;;;5059373;28;20037;-68
2022/12/20 07:47:14;;;;;;;14.45;9.32;;;10.20;99.90;;;;;;5063043;28;20036;-68
2022/12/20 07:49:39;;;;;;;15.02;9.05;;;10.20;99.90;;;;;;5065474;28;20037;-68
2022/12/20 07:52:08;;;;;;;13.95;9.18;;;10.20;99.90;;;;;;5048150;28;20043;-68
2022/12/20 07:54:37;;;;;;;16.52;10.00;;;10.30;99.90;;;;;;5050621;28;20046;-68
2022/12/20 07:57:11;;;;;;;14.85;9.63;;;10.30;99.90;;;;;;5047432;28;20392;-68
2022/12/20 07:59:44;;;;;;;12.25;8.57;;;10.30;99.90;;;;;;5067121;28;20044;-68
2022/12/20 08:02:15;;;;;;;14.77;10.23;;;10.30;99.90;;;;;;5049739;28;20124;-68
2022/12/20 08:04:41;;;;;;;12.43;8.70;;;10.30;99.90;;;;;;5081968;28;20074;-68
2022/12/20 08:07:07;;;;;;;13.70;9.10;;;10.40;99.90;;;;;;5063284;28;20512;-68
2022/12/20 08:09:38;;;;;;;11.80;9.15;;;10.30;99.90;;;;;;5065556;28;20443;-68
2022/12/20 08:12:03;;;;;;;13.18;8.57;;;10.40;99.90;;;;;;5049096;28;20083;-68
2022/12/20 08:14:29;;;;;;;10.80;7.82;;;10.40;99.90;;;;;;5050832;28;20099;-68
2022/12/20 08:16:55;;;;;;;12.50;7.65;;;10.40;99.90;;;;;;5049656;28;20040;-69
2022/12/20 08:19:20;;;;;;;11.52;8.05;;;10.40;99.90;;;;;;5047591;28;20048;-69
2022/12/20 08:21:46;;;;;;;12.27;7.75;;;10.40;99.90;;;;;;5062165;28;20841;-68
2022/12/20 08:24:12;;;;;;;13.80;8.05;;;10.40;99.90;;;;;;5064808;28;20036;-68
2022/12/20 08:26:41;;;;;;;13.55;8.40;;;10.40;99.90;;;;;;5050802;28;20074;-68
2022/12/20 08:29:07;;;;;;;11.52;7.68;;;10.50;99.90;;;;;;5062905;28;20121;-69
2022/12/20 08:31:36;;;;;;;10.77;6.60;;;10.50;99.90;;;;;;5049194;28;20048;-69
2022/12/20 08:34:01;;;;;;;11.63;6.50;;;10.50;99.90;;;;;;5063435;28;20047;-68
2022/12/20 08:36:27;;;;;;;10.75;6.68;;;10.50;99.90;;;;;;5066509;28;20545;-69
2022/12/20 08:38:53;;;;;;;9.77;6.78;;;10.50;99.90;;;;;;5066541;28;20115;-68
2022/12/20 08:41:18;;;;;;;10.02;5.97;;;10.50;99.90;;;;;;5063740;28;20052;-68
2022/12/20 08:43:44;;;;;;;8.45;5.38;;;10.50;99.90;;;;;;5048706;28;20048;-69
2022/12/20 08:46:11;;;;;;;12.15;5.68;;;10.60;99.90;;;;;;5050110;28;20060;-69
2022/12/20 08:48:37;;;;;;;9.18;5.95;;;10.60;99.90;;;;;;5061211;28;20043;-69
2022/12/20 08:51:05;;;;;;;10.63;5.75;;;10.60;99.90;;;;;;5066083;28;20036;-69
2022/12/20 08:53:32;;;;;;;9.95;5.80;;;10.60;99.90;;;;;;5049547;28;20513;-69
2022/12/20 08:56:05;;;;;;;10.23;5.65;;;10.60;99.90;;;;;;5047447;28;20051;-68
2022/12/20 08:58:31;;;;;;;8.93;5.03;;;10.60;99.90;;;;;;5048315;28;20048;-68
2022/12/20 09:01:00;;;;;;;9.55;5.57;;;10.60;99.90;;;;;;5064996;28;20048;-68
2022/12/20 09:03:30;;;;;;;9.48;4.82;;;10.60;99.90;;;;;;5065819;28;20040;-69
2022/12/20 09:05:57;;;;;;;7.88;5.05;;;10.60;99.90;;;;;;5066532;28;20440;-68
2022/12/20 09:08:22;;;;;;;7.63;5.10;;;10.60;99.90;;;;;;5065718;28;20362;-69
2022/12/20 09:10:48;;;;;;;9.00;5.05;;;10.70;99.90;;;;;;5050242;28;20040;-69
2022/12/20 09:13:13;;;;;;;8.32;4.93;;;10.70;99.90;;;;;;5064436;28;20046;-68
2022/12/20 09:15:39;;;;;;;8.43;4.72;;;10.70;99.90;;;;;;5064305;28;20135;-69
2022/12/20 09:18:05;;;;;;;10.18;4.95;;;10.70;99.90;;;;;;5064992;28;20397;-68
2022/12/20 09:20:31;;;;;;;7.28;4.60;;;10.70;99.90;;;;;;5047178;28;20435;-68
2022/12/20 09:22:58;;;;;;;8.93;4.57;;;10.70;99.90;;;;;;5064831;28;20059;-69
2022/12/20 09:25:25;;;;;;;7.40;4.72;;;10.80;99.90;;;;;;5062565;28;20596;-69
2022/12/20 09:27:51;;;;;;;7.30;4.60;;;10.80;99.90;;;;;;5060978;28;20045;-68
2022/12/20 09:30:17;;;;;;;10.00;5.05;;;10.80;99.90;;;;;;5064128;28;20518;-69
2022/12/20 09:32:42;;;;;;;7.20;4.82;;;10.90;99.90;;;;;;5066066;28;20040;-68
2022/12/20 09:35:08;;;;;;;10.20;4.38;;;10.90;99.90;;;;;;5046961;28;20075;-68
2022/12/20 09:37:34;;;;;;;9.73;5.15;;;10.90;99.90;;;;;;5047845;28;20402;-69
2022/12/20 09:39:59;;;;;;;7.72;4.63;;;10.90;99.90;;;;;;5064500;28;20129;-68
2022/12/20 09:42:27;;;;;;;9.60;4.80;;;11.00;99.90;;;;;;5064456;28;20048;-69
2022/12/20 09:45:03;;;;;;;7.72;4.10;;;11.10;99.90;;;;;;5046657;28;20041;-69
2022/12/20 09:47:30;;;;;;;8.40;4.55;;;11.10;99.90;;;;;;5063579;28;20044;-68
2022/12/20 09:49:56;;;;;;;8.43;4.20;;;11.10;99.90;;;;;;5060081;28;20056;-69
2022/12/20 09:52:46;;;;;;;8.35;4.50;;;11.20;99.90;;;;;;5064109;28;20481;-69
2022/12/20 09:55:36;;;;;;;9.63;4.20;;;11.20;99.90;;;;;;5045921;28;20607;-68
2022/12/20 09:58:50;;;;;;;6.70;4.13;;;11.30;99.90;;;;;;5064990;28;20036;-68
2022/12/20 10:01:20;;;;;;;6.68;4.25;;;11.30;99.90;;;;;;5058218;28;20049;-69
2022/12/20 10:03:46;;;;;;;7.10;3.97;;;11.30;99.90;;;;;;5047901;28;20045;-69
2022/12/20 10:06:55;;;;;;;6.75;4.10;;;11.20;99.90;;;;;;5064525;28;20449;-69
2022/12/20 10:09:58;;;;;;;8.95;4.70;;;11.20;99.90;;;;;;5046893;28;20123;-69
2022/12/20 10:12:45;;;;;;;8.07;4.47;;;11.10;99.90;;;;;;5061557;28;20566;-69
2022/12/20 10:15:32;;;;;;;8.25;4.45;;;11.10;99.90;;;;;;5063251;28;20044;-68
2022/12/20 10:18:20;;;;;;;10.93;4.60;;;11.10;99.90;;;;;;5063237;28;20137;-69
2022/12/20 10:21:03;;;;;;;8.55;5.18;;;11.10;99.90;;;;;;5064911;28;20052;-69
2022/12/20 10:23:44;;;;;;;8.25;4.03;;;11.10;99.90;;;;;;5064528;28;20465;-69
2022/12/20 10:26:12;;;;;;;11.70;4.50;;;11.10;99.90;;;;;;5064931;28;20507;-69
2022/12/20 10:28:39;;;;;;;6.85;3.95;;;11.10;99.90;;;;;;5065041;28;20037;-68
2022/12/20 10:31:16;;;;;;;8.75;4.32;;;11.20;99.90;;;;;;5063972;28;20115;-69
2022/12/20 10:33:42;;;;;;;7.07;4.15;;;11.20;99.90;;;;;;5064121;28;20438;-69
2022/12/20 10:36:19;;;;;;;9.73;4.43;;;11.20;99.90;;;;;;5064302;28;20036;-69
2022/12/20 10:38:48;;;;;;;9.25;4.07;;;11.20;99.90;;;;;;5062918;28;20049;-69
2022/12/20 10:41:18;;;;;;;7.70;4.10;;;11.20;99.90;;;;;;5061760;28;20581;-69
2022/12/20 10:43:47;;;;;;;8.15;4.22;;;11.20;99.90;;;;;;5060093;28;20106;-69
2022/12/20 10:46:17;;;;;;;7.65;4.72;;;11.10;99.90;;;;;;5047405;28;20064;-69
2022/12/20 10:48:45;;;;;;;8.60;4.57;;;11.20;99.90;;;;;;5046348;28;20122;-69
2022/12/20 10:51:11;;;;;;;7.30;4.10;;;11.20;99.90;;;;;;5047952;28;20037;-69
2022/12/20 10:53:51;;;;;;;7.53;4.15;;;11.30;99.90;;;;;;5063018;28;20051;-69
2022/12/20 10:56:20;;;;;;;11.88;4.53;;;11.30;99.90;;;;;;5061465;28;20143;-69
2022/12/20 10:59:14;;;;;;;7.93;4.20;;;11.30;99.90;;;;;;5080937;28;20036;-68
2022/12/20 11:01:43;;;;;;;6.63;4.32;;;11.30;99.90;;;;;;5047662;28;20049;-69
2022/12/20 11:04:34;;;;;;;9.43;4.30;;;11.20;99.90;;;;;;5047269;28;20507;-68
2022/12/20 11:07:02;;;;;;;10.73;4.43;;;11.20;99.90;;;;;;5062533;28;20041;-69
2022/12/20 11:09:28;;;;;;;7.65;4.57;;;11.10;99.90;;;;;;5047837;28;20373;-69
2022/12/20 11:12:01;;;;;;;6.82;4.25;;;11.10;99.90;;;;;;5045440;28;20101;-69
2022/12/20 11:14:28;;;;;;;9.18;4.88;;;11.10;99.90;;;;;;5062179;28;20057;-68
2022/12/20 11:16:55;;;;;;;6.80;4.57;;;11.00;99.90;;;;;;5046051;28;20040;-68
2022/12/20 11:19:30;;;;;;;8.25;5.00;;;11.00;99.90;;;;;;5063819;28;20076;-69
2022/12/20 11:22:03;;;;;;;9.50;4.50;;;11.00;99.90;;;;;;5064086;28;20047;-69
2022/12/20 11:24:47;;;;;;;9.55;4.50;;;11.00;99.90;;;;;;5049680;28;20522;-69
2022/12/20 11:27:27;;;;;;;9.00;5.17;;;11.00;99.90;;;;;;5048510;28;20044;-69
2022/12/20 11:30:08;;;;;;;9.10;4.97;;;11.00;99.90;;;;;;5067370;28;20040;-69
2022/12/20 11:32:46;;;;;;;8.77;4.80;;;11.00;99.90;;;;;;5063634;28;20040;-69
2022/12/20 11:35:47;;;;;;;9.15;4.70;;;11.00;99.90;;;;;;5050119;28;20067;-69
2022/12/20 11:38:19;;;;;;;8.23;4.60;;;11.00;99.90;;;;;;5064693;28;20048;-69
2022/12/20 11:41:01;;;;;;;9.32;4.68;;;11.00;99.90;;;;;;5047995;28;20097;-69
2022/12/20 11:43:47;;;;;;;8.13;4.97;;;11.00;99.90;;;;;;5084260;28;20392;-69
2022/12/20 11:46:43;;;;;;;9.32;5.18;;;11.00;99.90;;;;;;5063433;28;20040;-69
2022/12/20 11:49:27;;;;;;;8.95;4.40;;;11.00;99.90;;;;;;5076145;28;20123;-68
2022/12/20 11:52:07;;;;;;;8.82;4.80;;;11.00;99.90;;;;;;5061601;28;20047;-69
2022/12/20 11:54:42;;;;;;;10.18;5.43;;;10.90;99.90;;;;;;5041960;28;20068;-68
2022/12/20 11:57:23;;;;;;;9.15;5.28;;;10.90;99.90;;;;;;5060891;28;20461;-69
2022/12/20 11:59:57;;;;;;;10.40;5.03;;;10.90;99.90;;;;;;5061550;28;20068;-68
2022/12/20 12:02:49;;;;;;;10.25;5.28;;;10.80;99.90;;;;;;5056909;28;20139;-69
2022/12/20 12:05:25;;;;;;;8.88;5.45;;;10.80;99.90;;;;;;5054484;28;20127;-69
2022/12/20 12:08:06;;;;;;;9.07;5.72;;;10.80;99.90;;;;;;5045687;28;20821;-70
2022/12/20 12:10:36;;;;;;;8.52;5.57;;;10.80;99.90;;;;;;5061299;28;20499;-69
2022/12/20 12:13:22;;;;;;;9.27;5.85;;;10.80;99.90;;;;;;5045987;28;20051;-69
2022/12/20 12:16:02;;;;;;;8.93;6.03;;;10.80;99.90;;;;;;5062671;28;20404;-69
2022/12/20 12:18:30;;;;;;;9.88;5.97;;;10.80;99.90;;;;;;5058552;28;20045;-69
2022/12/20 12:20:55;;;;;;;11.35;6.55;;;10.80;99.90;;;;;;5062892;28;20144;-69
2022/12/20 12:23:35;;;;;;;11.00;6.40;;;10.80;99.90;;;;;;5045516;28;20147;-69
2022/12/20 12:26:19;;;;;;;10.75;6.30;;;10.80;99.90;;;;;;5046172;28;20063;-68
2022/12/20 12:28:49;;;;;;;10.45;6.45;;;10.70;99.90;;;;;;5049921;28;20403;-69
2022/12/20 12:31:20;;;;;;;11.02;6.32;;;10.70;99.90;;;;;;5063887;28;20113;-68
2022/12/20 12:33:59;;;;;;;11.73;7.32;;;10.70;99.90;;;;;;5065276;28;20059;-68
2022/12/20 12:36:35;;;;;;;11.35;6.80;;;10.60;99.90;;;;;;5049960;28;20535;-68
2022/12/20 12:39:19;;;;;;;12.50;7.03;;;10.60;99.90;;;;;;5050848;28;20058;-69
2022/12/20 12:42:09;;;;;;;10.33;7.30;;;10.60;99.90;;;;;;5049687;28;20048;-68
2022/12/20 12:44:48;;;;;;;10.02;6.95;;;10.60;99.90;;;;;;5065139;28;20497;-68
2022/12/20 12:47:23;;;;;;;11.13;6.80;;;10.60;99.90;;;;;;5041706;28;20047;-69
2022/12/20 12:49:51;;;;;;;10.68;7.53;;;10.60;99.90;;;;;;5045870;28;20033;-68
2022/12/20 12:52:42;;;;;;;12.60;8.00;;;10.50;99.90;;;;;;5043403;28;20119;-68
2022/12/20 12:55:45;;;;;;;10.75;7.80;;;10.50;99.90;;;;;;5067222;28;20584;-69
2022/12/20 12:58:23;;;;;;;13.82;8.43;;;10.50;99.90;;;;;;5047559;28;20094;-69
2022/12/20 13:01:02;;;;;;;13.68;8.10;;;10.50;99.90;;;;;;5061706;28;20086;-69
2022/12/20 13:03:53;;;;;;;10.05;6.95;;;10.50;99.90;;;;;;5064064;28;20040;-69
2022/12/20 13:06:22;;;;;;;14.52;8.70;;;10.50;99.90;;;;;;5015845;28;20095;-68
2022/12/20 13:09:34;;;;;;;14.50;8.52;;;10.50;99.90;;;;;;5048570;28;20044;-68